sensor_id;sensor_type;location;lat;lon;timestamp;temperature;humidity
49218;DHT22;35045;51.194;7.268;2022-07-23T00:00:00;16.80;99.90
49218;DHT22;35045;51.194;7.268;2022-07-23T00:02:25;16.80;99.90
49218;DHT22;35045;51.194;7.268;2022-07-23T00:04:50;16.70;99.90
49218;DHT22;35045;51.194;7.268;2022-07-23T00:07:16;16.70;99.90
49218;DHT22;35045;51.194;7.268;2022-07-23T00:09:41;16.80;99.90
49218;DHT22;35045;51.194;7.268;2022-07-23T00:12:06;16.80;99.90
49218;DHT22;35045;51.194;7.268;2022-07-23T00:14:31;16.70;99.90
49218;DHT22;35045;51.194;7.268;2022-07-23T00:16:58;16.60;99.90
49218;DHT22;35045;51.194;7.268;2022-07-23T00:19:23;16.50;99.90
49218;DHT22;35045;51.194;7.268;2022-07-23T00:21:48;16.30;99.90
49218;DHT22;35045;51.194;7.268;2022-07-23T00:24:13;16.30;99.90
49218;DHT22;35045;51.194;7.268;2022-07-23T00:26:38;16.20;99.90
49218;DHT22;35045;51.194;7.268;2022-07-23T00:29:03;16.10;99.90
49218;DHT22;35045;51.194;7.268;2022-07-23T00:31:29;16.00;99.90
49218;DHT22;35045;51.194;7.268;2022-07-23T00:33:54;16.00;99.90
49218;DHT22;35045;51.194;7.268;2022-07-23T00:36:21;16.00;99.90
49218;DHT22;35045;51.194;7.268;2022-07-23T00:38:48;16.00;99.90
49218;DHT22;35045;51.194;7.268;2022-07-23T00:41:13;16.00;99.90
49218;DHT22;35045;51.194;7.268;2022-07-23T00:43:38;16.00;99.90
49218;DHT22;35045;51.194;7.268;2022-07-23T00:46:03;16.10;99.90
49218;DHT22;35045;51.194;7.268;2022-07-23T00:48:28;16.20;99.90
49218;DHT22;35045;51.194;7.268;2022-07-23T00:50:53;16.20;99.90
49218;DHT22;35045;51.194;7.268;2022-07-23T00:53:19;16.20;99.90
49218;DHT22;35045;51.194;7.268;2022-07-23T00:55:44;16.30;99.90
49218;DHT22;35045;51.194;7.268;2022-07-23T00:58:09;16.30;99.90
49218;DHT22;35045;51.194;7.268;2022-07-23T01:00:36;16.40;99.90
49218;DHT22;35045;51.194;7.268;2022-07-23T01:03:01;16.40;99.90
49218;DHT22;35045;51.194;7.268;2022-07-23T01:05:26;16.40;99.90
49218;DHT22;35045;51.194;7.268;2022-07-23T01:07:52;16.50;99.90
49218;DHT22;35045;51.194;7.268;2022-07-23T01:10:17;16.50;99.90
49218;DHT22;35045;51.194;7.268;2022-07-23T01:13:09;16.50;99.90
49218;DHT22;35045;51.194;7.268;2022-07-23T01:15:36;16.50;99.90
49218;DHT22;35045;51.194;7.268;2022-07-23T01:18:02;16.50;99.90
49218;DHT22;35045;51.194;7.268;2022-07-23T01:20:27;16.50;99.90
49218;DHT22;35045;51.194;7.268;2022-07-23T01:22:53;16.50;99.90
49218;DHT22;35045;51.194;7.268;2022-07-23T01:25:19;16.50;99.90
49218;DHT22;35045;51.194;7.268;2022-07-23T01:27:44;16.50;99.90
49218;DHT22;35045;51.194;7.268;2022-07-23T01:30:09;16.40;99.90
49218;DHT22;35045;51.194;7.268;2022-07-23T01:32:35;16.40;99.90
49218;DHT22;35045;51.194;7.268;2022-07-23T01:35:00;16.40;99.90
49218;DHT22;35045;51.194;7.268;2022-07-23T01:37:25;16.40;99.90
49218;DHT22;35045;51.194;7.268;2022-07-23T01:39:50;16.40;99.90
49218;DHT22;35045;51.194;7.268;2022-07-23T01:42:15;16.50;99.90
49218;DHT22;35045;51.194;7.268;2022-07-23T01:44:40;16.50;99.90
49218;DHT22;35045;51.194;7.268;2022-07-23T01:47:05;16.50;99.90
49218;DHT22;35045;51.194;7.268;2022-07-23T01:49:30;16.60;99.90
49218;DHT22;35045;51.194;7.268;2022-07-23T01:51:56;16.60;99.90
49218;DHT22;35045;51.194;7.268;2022-07-23T01:54:25;16.60;99.90
49218;DHT22;35045;51.194;7.268;2022-07-23T01:56:50;16.50;99.90
49218;DHT22;35045;51.194;7.268;2022-07-23T01:59:16;16.40;99.90
49218;DHT22;35045;51.194;7.268;2022-07-23T02:01:41;16.40;99.90
49218;DHT22;35045;51.194;7.268;2022-07-23T02:04:06;16.30;99.90
49218;DHT22;35045;51.194;7.268;2022-07-23T02:06:31;16.40;99.90
49218;DHT22;35045;51.194;7.268;2022-07-23T02:08:56;16.40;99.90
49218;DHT22;35045;51.194;7.268;2022-07-23T02:11:21;16.30;99.90
49218;DHT22;35045;51.194;7.268;2022-07-23T02:13:46;16.30;99.90
49218;DHT22;35045;51.194;7.268;2022-07-23T02:16:11;16.30;99.90
49218;DHT22;35045;51.194;7.268;2022-07-23T02:18:36;16.30;99.90
49218;DHT22;35045;51.194;7.268;2022-07-23T02:21:01;16.30;99.90
49218;DHT22;35045;51.194;7.268;2022-07-23T02:23:26;16.40;99.90
49218;DHT22;35045;51.194;7.268;2022-07-23T02:25:51;16.30;99.90
49218;DHT22;35045;51.194;7.268;2022-07-23T02:28:16;16.20;99.90
49218;DHT22;35045;51.194;7.268;2022-07-23T02:30:41;16.20;99.90
49218;DHT22;35045;51.194;7.268;2022-07-23T02:33:06;16.10;99.90
49218;DHT22;35045;51.194;7.268;2022-07-23T02:35:31;16.10;99.90
49218;DHT22;35045;51.194;7.268;2022-07-23T02:37:56;16.20;99.90
49218;DHT22;35045;51.194;7.268;2022-07-23T02:40:21;16.10;99.90
49218;DHT22;35045;51.194;7.268;2022-07-23T02:42:46;16.20;99.90
49218;DHT22;35045;51.194;7.268;2022-07-23T02:45:11;16.10;99.90
49218;DHT22;35045;51.194;7.268;2022-07-23T02:47:36;16.10;99.90
49218;DHT22;35045;51.194;7.268;2022-07-23T02:50:01;16.10;99.90
49218;DHT22;35045;51.194;7.268;2022-07-23T02:52:28;16.10;99.90
49218;DHT22;35045;51.194;7.268;2022-07-23T02:54:53;16.10;99.90
49218;DHT22;35045;51.194;7.268;2022-07-23T02:57:18;16.10;99.90
49218;DHT22;35045;51.194;7.268;2022-07-23T02:59:43;16.10;99.90
49218;DHT22;35045;51.194;7.268;2022-07-23T03:02:08;16.00;99.90
49218;DHT22;35045;51.194;7.268;2022-07-23T03:04:33;16.00;99.90
49218;DHT22;35045;51.194;7.268;2022-07-23T03:06:58;16.00;99.90
49218;DHT22;35045;51.194;7.268;2022-07-23T03:09:23;16.00;99.90
49218;DHT22;35045;51.194;7.268;2022-07-23T03:11:48;16.10;99.90
49218;DHT22;35045;51.194;7.268;2022-07-23T03:14:13;16.10;99.90
49218;DHT22;35045;51.194;7.268;2022-07-23T03:16:40;16.10;99.90
49218;DHT22;35045;51.194;7.268;2022-07-23T03:19:06;16.10;99.90
49218;DHT22;35045;51.194;7.268;2022-07-23T03:21:31;16.10;99.90
49218;DHT22;35045;51.194;7.268;2022-07-23T03:23:56;16.10;99.90
49218;DHT22;35045;51.194;7.268;2022-07-23T03:26:21;16.00;99.90
49218;DHT22;35045;51.194;7.268;2022-07-23T03:28:49;16.10;99.90
49218;DHT22;35045;51.194;7.268;2022-07-23T03:31:14;16.00;99.90
49218;DHT22;35045;51.194;7.268;2022-07-23T03:33:39;15.90;99.90
49218;DHT22;35045;51.194;7.268;2022-07-23T03:36:06;15.90;99.90
49218;DHT22;35045;51.194;7.268;2022-07-23T03:38:31;15.90;99.90
49218;DHT22;35045;51.194;7.268;2022-07-23T03:40:56;15.90;99.90
49218;DHT22;35045;51.194;7.268;2022-07-23T03:43:21;15.90;99.90
49218;DHT22;35045;51.194;7.268;2022-07-23T03:45:46;15.90;99.90
49218;DHT22;35045;51.194;7.268;2022-07-23T03:48:11;15.90;99.90
49218;DHT22;35045;51.194;7.268;2022-07-23T03:50:36;15.80;99.90
49218;DHT22;35045;51.194;7.268;2022-07-23T03:53:02;15.80;99.90
49218;DHT22;35045;51.194;7.268;2022-07-23T03:55:27;15.80;99.90
49218;DHT22;35045;51.194;7.268;2022-07-23T03:57:52;15.80;99.90
49218;DHT22;35045;51.194;7.268;2022-07-23T04:00:17;15.80;99.90
49218;DHT22;35045;51.194;7.268;2022-07-23T04:02:42;15.90;99.90
49218;DHT22;35045;51.194;7.268;2022-07-23T04:05:07;15.80;99.90
49218;DHT22;35045;51.194;7.268;2022-07-23T04:07:32;15.80;99.90
49218;DHT22;35045;51.194;7.268;2022-07-23T04:09:57;15.80;99.90
49218;DHT22;35045;51.194;7.268;2022-07-23T04:12:23;15.70;99.90
49218;DHT22;35045;51.194;7.268;2022-07-23T04:14:48;15.70;99.90
49218;DHT22;35045;51.194;7.268;2022-07-23T04:17:13;15.70;99.90
49218;DHT22;35045;51.194;7.268;2022-07-23T04:19:38;15.70;99.90
49218;DHT22;35045;51.194;7.268;2022-07-23T04:22:08;15.60;99.90
49218;DHT22;35045;51.194;7.268;2022-07-23T04:24:33;15.70;99.90
49218;DHT22;35045;51.194;7.268;2022-07-23T04:26:58;15.70;99.90
49218;DHT22;35045;51.194;7.268;2022-07-23T04:29:24;15.80;99.90
49218;DHT22;35045;51.194;7.268;2022-07-23T04:31:49;15.80;99.90
49218;DHT22;35045;51.194;7.268;2022-07-23T04:34:14;15.80;99.90
49218;DHT22;35045;51.194;7.268;2022-07-23T04:36:39;15.80;99.90
49218;DHT22;35045;51.194;7.268;2022-07-23T04:39:04;15.80;99.90
49218;DHT22;35045;51.194;7.268;2022-07-23T04:41:29;15.90;99.90
49218;DHT22;35045;51.194;7.268;2022-07-23T04:43:54;15.90;99.90
49218;DHT22;35045;51.194;7.268;2022-07-23T04:46:19;15.90;99.90
49218;DHT22;35045;51.194;7.268;2022-07-23T04:48:44;16.00;99.90
49218;DHT22;35045;51.194;7.268;2022-07-23T04:51:09;16.00;99.90
49218;DHT22;35045;51.194;7.268;2022-07-23T04:53:36;16.10;99.90
49218;DHT22;35045;51.194;7.268;2022-07-23T04:56:01;16.10;99.90
49218;DHT22;35045;51.194;7.268;2022-07-23T04:58:26;16.10;99.90
49218;DHT22;35045;51.194;7.268;2022-07-23T05:00:51;16.20;99.90
49218;DHT22;35045;51.194;7.268;2022-07-23T05:03:17;16.20;99.90
49218;DHT22;35045;51.194;7.268;2022-07-23T05:05:42;16.30;99.90
49218;DHT22;35045;51.194;7.268;2022-07-23T05:08:06;16.40;99.90
49218;DHT22;35045;51.194;7.268;2022-07-23T05:10:33;16.40;99.90
49218;DHT22;35045;51.194;7.268;2022-07-23T05:12:58;16.50;99.90
49218;DHT22;35045;51.194;7.268;2022-07-23T05:15:23;16.50;99.90
49218;DHT22;35045;51.194;7.268;2022-07-23T05:17:48;16.50;99.90
49218;DHT22;35045;51.194;7.268;2022-07-23T05:20:13;16.60;99.90
49218;DHT22;35045;51.194;7.268;2022-07-23T05:22:38;16.60;99.90
49218;DHT22;35045;51.194;7.268;2022-07-23T05:25:04;16.70;99.90
49218;DHT22;35045;51.194;7.268;2022-07-23T05:27:29;16.80;99.90
49218;DHT22;35045;51.194;7.268;2022-07-23T05:29:54;16.80;99.90
49218;DHT22;35045;51.194;7.268;2022-07-23T05:32:19;16.90;99.90
49218;DHT22;35045;51.194;7.268;2022-07-23T05:34:44;16.90;99.90
49218;DHT22;35045;51.194;7.268;2022-07-23T05:37:09;17.00;99.90
49218;DHT22;35045;51.194;7.268;2022-07-23T05:39:34;17.00;99.90
49218;DHT22;35045;51.194;7.268;2022-07-23T05:41:59;17.10;99.90
49218;DHT22;35045;51.194;7.268;2022-07-23T05:44:24;17.00;99.90
49218;DHT22;35045;51.194;7.268;2022-07-23T05:46:52;17.10;99.90
49218;DHT22;35045;51.194;7.268;2022-07-23T05:49:17;17.10;99.90
49218;DHT22;35045;51.194;7.268;2022-07-23T05:51:42;17.10;99.90
49218;DHT22;35045;51.194;7.268;2022-07-23T05:54:07;17.10;99.90
49218;DHT22;35045;51.194;7.268;2022-07-23T05:56:32;17.00;99.90
49218;DHT22;35045;51.194;7.268;2022-07-23T05:58:57;17.00;99.90
49218;DHT22;35045;51.194;7.268;2022-07-23T06:01:22;17.10;99.90
49218;DHT22;35045;51.194;7.268;2022-07-23T06:03:47;17.20;99.90
49218;DHT22;35045;51.194;7.268;2022-07-23T06:06:12;17.20;99.90
49218;DHT22;35045;51.194;7.268;2022-07-23T06:08:37;17.20;99.90
49218;DHT22;35045;51.194;7.268;2022-07-23T06:11:02;17.30;99.90
49218;DHT22;35045;51.194;7.268;2022-07-23T06:13:27;17.30;99.90
49218;DHT22;35045;51.194;7.268;2022-07-23T06:15:52;17.20;99.90
49218;DHT22;35045;51.194;7.268;2022-07-23T06:18:17;17.30;99.90
49218;DHT22;35045;51.194;7.268;2022-07-23T06:20:43;17.40;99.90
49218;DHT22;35045;51.194;7.268;2022-07-23T06:23:08;17.50;99.90
49218;DHT22;35045;51.194;7.268;2022-07-23T06:25:33;17.40;99.90
49218;DHT22;35045;51.194;7.268;2022-07-23T06:27:58;17.50;99.90
49218;DHT22;35045;51.194;7.268;2022-07-23T06:30:24;17.60;99.90
49218;DHT22;35045;51.194;7.268;2022-07-23T06:32:50;17.60;99.90
49218;DHT22;35045;51.194;7.268;2022-07-23T06:35:16;17.70;99.90
49218;DHT22;35045;51.194;7.268;2022-07-23T06:37:41;17.70;99.90
49218;DHT22;35045;51.194;7.268;2022-07-23T06:40:06;17.70;99.90
49218;DHT22;35045;51.194;7.268;2022-07-23T06:42:31;17.80;99.90
49218;DHT22;35045;51.194;7.268;2022-07-23T06:44:56;17.80;99.90
49218;DHT22;35045;51.194;7.268;2022-07-23T06:47:21;17.80;99.90
49218;DHT22;35045;51.194;7.268;2022-07-23T06:49:46;17.90;99.90
49218;DHT22;35045;51.194;7.268;2022-07-23T06:52:11;18.00;99.90
49218;DHT22;35045;51.194;7.268;2022-07-23T06:54:36;18.10;99.90
49218;DHT22;35045;51.194;7.268;2022-07-23T06:57:01;18.20;99.90
49218;DHT22;35045;51.194;7.268;2022-07-23T06:59:26;18.40;99.90
49218;DHT22;35045;51.194;7.268;2022-07-23T07:01:51;18.30;99.90
49218;DHT22;35045;51.194;7.268;2022-07-23T07:04:17;18.30;99.90
49218;DHT22;35045;51.194;7.268;2022-07-23T07:06:42;18.30;99.90
49218;DHT22;35045;51.194;7.268;2022-07-23T07:09:07;18.30;99.90
49218;DHT22;35045;51.194;7.268;2022-07-23T07:11:32;18.30;99.90
49218;DHT22;35045;51.194;7.268;2022-07-23T07:13:57;18.30;99.90
49218;DHT22;35045;51.194;7.268;2022-07-23T07:16:22;18.30;99.90
49218;DHT22;35045;51.194;7.268;2022-07-23T07:18:47;18.30;99.90
49218;DHT22;35045;51.194;7.268;2022-07-23T07:21:12;18.20;99.90
49218;DHT22;35045;51.194;7.268;2022-07-23T07:23:37;18.30;99.90
49218;DHT22;35045;51.194;7.268;2022-07-23T07:26:04;18.30;99.90
49218;DHT22;35045;51.194;7.268;2022-07-23T07:28:29;18.30;99.90
49218;DHT22;35045;51.194;7.268;2022-07-23T07:30:54;18.40;99.90
49218;DHT22;35045;51.194;7.268;2022-07-23T07:33:19;18.50;99.90
49218;DHT22;35045;51.194;7.268;2022-07-23T07:35:45;18.50;99.90
49218;DHT22;35045;51.194;7.268;2022-07-23T07:38:10;18.60;99.90
49218;DHT22;35045;51.194;7.268;2022-07-23T07:40:35;18.60;99.90
49218;DHT22;35045;51.194;7.268;2022-07-23T07:43:00;18.70;99.90
49218;DHT22;35045;51.194;7.268;2022-07-23T07:45:28;18.70;99.90
49218;DHT22;35045;51.194;7.268;2022-07-23T07:47:53;18.80;99.90
49218;DHT22;35045;51.194;7.268;2022-07-23T07:50:19;18.80;99.90
49218;DHT22;35045;51.194;7.268;2022-07-23T07:52:44;18.80;99.90
49218;DHT22;35045;51.194;7.268;2022-07-23T07:55:10;18.80;99.90
49218;DHT22;35045;51.194;7.268;2022-07-23T07:57:35;18.80;99.90
49218;DHT22;35045;51.194;7.268;2022-07-23T08:00:00;18.80;99.90
49218;DHT22;35045;51.194;7.268;2022-07-23T08:02:25;18.90;99.90
49218;DHT22;35045;51.194;7.268;2022-07-23T08:04:51;18.90;99.90
49218;DHT22;35045;51.194;7.268;2022-07-23T08:07:17;19.10;99.90
49218;DHT22;35045;51.194;7.268;2022-07-23T08:09:42;19.30;99.90
49218;DHT22;35045;51.194;7.268;2022-07-23T08:12:07;19.40;99.90
49218;DHT22;35045;51.194;7.268;2022-07-23T08:14:32;19.40;99.90
49218;DHT22;35045;51.194;7.268;2022-07-23T08:16:57;19.20;99.90
49218;DHT22;35045;51.194;7.268;2022-07-23T08:19:22;19.30;99.90
49218;DHT22;35045;51.194;7.268;2022-07-23T08:21:47;19.30;99.90
49218;DHT22;35045;51.194;7.268;2022-07-23T08:24:12;19.30;99.90
49218;DHT22;35045;51.194;7.268;2022-07-23T08:26:37;19.40;99.90
49218;DHT22;35045;51.194;7.268;2022-07-23T08:29:02;19.50;99.90
49218;DHT22;35045;51.194;7.268;2022-07-23T08:31:28;19.50;99.90
49218;DHT22;35045;51.194;7.268;2022-07-23T08:33:53;19.30;99.90
49218;DHT22;35045;51.194;7.268;2022-07-23T08:36:18;19.30;99.90
49218;DHT22;35045;51.194;7.268;2022-07-23T08:38:43;19.50;99.90
49218;DHT22;35045;51.194;7.268;2022-07-23T08:41:09;19.50;99.90
49218;DHT22;35045;51.194;7.268;2022-07-23T08:43:34;19.60;99.90
49218;DHT22;35045;51.194;7.268;2022-07-23T08:46:01;19.90;99.90
49218;DHT22;35045;51.194;7.268;2022-07-23T08:48:32;20.00;99.90
49218;DHT22;35045;51.194;7.268;2022-07-23T08:50:59;20.20;99.90
49218;DHT22;35045;51.194;7.268;2022-07-23T08:53:25;20.20;99.90
49218;DHT22;35045;51.194;7.268;2022-07-23T08:55:52;20.10;99.90
49218;DHT22;35045;51.194;7.268;2022-07-23T08:58:18;20.10;99.90
49218;DHT22;35045;51.194;7.268;2022-07-23T09:00:44;20.10;99.90
49218;DHT22;35045;51.194;7.268;2022-07-23T09:03:18;20.10;99.90
49218;DHT22;35045;51.194;7.268;2022-07-23T09:05:43;20.20;99.90
49218;DHT22;35045;51.194;7.268;2022-07-23T09:08:10;20.20;99.90
49218;DHT22;35045;51.194;7.268;2022-07-23T09:16:04;20.30;99.90
49218;DHT22;35045;51.194;7.268;2022-07-23T09:19:12;20.10;99.90
49218;DHT22;35045;51.194;7.268;2022-07-23T09:21:21;20.20;99.90
49218;DHT22;35045;51.194;7.268;2022-07-23T09:23:53;20.30;99.90
49218;DHT22;35045;51.194;7.268;2022-07-23T09:26:34;20.30;99.90
49218;DHT22;35045;51.194;7.268;2022-07-23T09:29:05;20.20;99.90
49218;DHT22;35045;51.194;7.268;2022-07-23T09:31:54;20.40;99.90
49218;DHT22;35045;51.194;7.268;2022-07-23T09:34:26;20.50;99.90
49218;DHT22;35045;51.194;7.268;2022-07-23T09:36:56;20.50;99.90
49218;DHT22;35045;51.194;7.268;2022-07-23T09:39:29;20.30;99.90
49218;DHT22;35045;51.194;7.268;2022-07-23T09:41:54;20.40;99.90
49218;DHT22;35045;51.194;7.268;2022-07-23T09:44:20;20.40;99.90
49218;DHT22;35045;51.194;7.268;2022-07-23T09:46:48;20.50;99.90
49218;DHT22;35045;51.194;7.268;2022-07-23T09:49:15;20.60;99.90
49218;DHT22;35045;51.194;7.268;2022-07-23T09:52:00;20.60;99.90
49218;DHT22;35045;51.194;7.268;2022-07-23T09:54:33;20.80;99.90
49218;DHT22;35045;51.194;7.268;2022-07-23T09:57:02;20.80;99.90
49218;DHT22;35045;51.194;7.268;2022-07-23T09:59:30;21.00;99.90
49218;DHT22;35045;51.194;7.268;2022-07-23T10:01:58;21.10;99.90
49218;DHT22;35045;51.194;7.268;2022-07-23T10:04:25;21.10;99.90
49218;DHT22;35045;51.194;7.268;2022-07-23T10:06:53;21.30;99.90
49218;DHT22;35045;51.194;7.268;2022-07-23T10:09:27;21.40;99.90
49218;DHT22;35045;51.194;7.268;2022-07-23T10:11:55;21.40;99.90
49218;DHT22;35045;51.194;7.268;2022-07-23T10:14:25;21.40;99.90
49218;DHT22;35045;51.194;7.268;2022-07-23T10:16:50;21.50;99.90
49218;DHT22;35045;51.194;7.268;2022-07-23T10:19:17;21.60;99.90
49218;DHT22;35045;51.194;7.268;2022-07-23T10:21:49;21.60;99.90
49218;DHT22;35045;51.194;7.268;2022-07-23T10:24:36;21.60;99.90
49218;DHT22;35045;51.194;7.268;2022-07-23T10:27:29;21.60;99.90
49218;DHT22;35045;51.194;7.268;2022-07-23T10:30:16;21.80;99.90
49218;DHT22;35045;51.194;7.268;2022-07-23T10:36:30;22.00;99.90
49218;DHT22;35045;51.194;7.268;2022-07-23T10:39:06;22.00;99.90
49218;DHT22;35045;51.194;7.268;2022-07-23T10:41:39;22.20;99.90
49218;DHT22;35045;51.194;7.268;2022-07-23T10:44:19;22.30;99.50
49218;DHT22;35045;51.194;7.268;2022-07-23T10:46:59;22.20;99.90
49218;DHT22;35045;51.194;7.268;2022-07-23T10:49:34;22.30;99.70
49218;DHT22;35045;51.194;7.268;2022-07-23T10:54:43;22.50;99.60
49218;DHT22;35045;51.194;7.268;2022-07-23T10:57:10;22.50;98.90
49218;DHT22;35045;51.194;7.268;2022-07-23T11:02:37;22.60;99.40
49218;DHT22;35045;51.194;7.268;2022-07-23T11:05:06;22.60;98.80
49218;DHT22;35045;51.194;7.268;2022-07-23T11:07:32;22.60;99.00
49218;DHT22;35045;51.194;7.268;2022-07-23T11:09:57;22.70;98.60
49218;DHT22;35045;51.194;7.268;2022-07-23T11:17:35;23.10;97.60
49218;DHT22;35045;51.194;7.268;2022-07-23T11:22:47;23.00;97.90
49218;DHT22;35045;51.194;7.268;2022-07-23T11:27:46;22.70;97.50
49218;DHT22;35045;51.194;7.268;2022-07-23T11:33:37;23.00;98.10
49218;DHT22;35045;51.194;7.268;2022-07-23T11:35:40;23.10;96.40
49218;DHT22;35045;51.194;7.268;2022-07-23T11:40:37;23.60;97.30
49218;DHT22;35045;51.194;7.268;2022-07-23T11:43:03;23.70;97.00
49218;DHT22;35045;51.194;7.268;2022-07-23T11:45:45;23.80;97.30
49218;DHT22;35045;51.194;7.268;2022-07-23T11:48:22;23.90;96.60
49218;DHT22;35045;51.194;7.268;2022-07-23T11:50:48;23.80;96.60
49218;DHT22;35045;51.194;7.268;2022-07-23T11:53:21;23.90;96.80
49218;DHT22;35045;51.194;7.268;2022-07-23T11:55:46;24.00;97.10
49218;DHT22;35045;51.194;7.268;2022-07-23T11:58:11;24.10;95.30
49218;DHT22;35045;51.194;7.268;2022-07-23T12:00:41;24.00;96.40
49218;DHT22;35045;51.194;7.268;2022-07-23T12:03:06;23.90;96.40
49218;DHT22;35045;51.194;7.268;2022-07-23T12:05:33;24.00;95.60
49218;DHT22;35045;51.194;7.268;2022-07-23T12:08:01;24.40;95.90
49218;DHT22;35045;51.194;7.268;2022-07-23T12:10:29;24.60;95.60
49218;DHT22;35045;51.194;7.268;2022-07-23T12:13:06;24.70;94.90
49218;DHT22;35045;51.194;7.268;2022-07-23T12:15:38;24.70;94.50
49218;DHT22;35045;51.194;7.268;2022-07-23T12:18:05;24.70;93.60
49218;DHT22;35045;51.194;7.268;2022-07-23T12:20:36;24.50;94.50
49218;DHT22;35045;51.194;7.268;2022-07-23T12:23:03;24.40;94.30
49218;DHT22;35045;51.194;7.268;2022-07-23T12:25:34;24.30;94.30
49218;DHT22;35045;51.194;7.268;2022-07-23T12:32:58;24.60;94.20
49218;DHT22;35045;51.194;7.268;2022-07-23T12:35:31;25.10;94.20
49218;DHT22;35045;51.194;7.268;2022-07-23T12:38:01;25.30;92.70
49218;DHT22;35045;51.194;7.268;2022-07-23T12:40:30;25.40;93.00
49218;DHT22;35045;51.194;7.268;2022-07-23T12:43:05;25.20;93.40
49218;DHT22;35045;51.194;7.268;2022-07-23T12:45:50;24.80;93.70
49218;DHT22;35045;51.194;7.268;2022-07-23T12:48:37;25.00;93.80
49218;DHT22;35045;51.194;7.268;2022-07-23T12:51:05;24.90;93.90
49218;DHT22;35045;51.194;7.268;2022-07-23T12:53:32;24.60;94.80
49218;DHT22;35045;51.194;7.268;2022-07-23T12:56:21;24.40;95.20
49218;DHT22;35045;51.194;7.268;2022-07-23T12:58:52;24.40;94.80
49218;DHT22;35045;51.194;7.268;2022-07-23T13:03:58;25.20;94.30
49218;DHT22;35045;51.194;7.268;2022-07-23T13:06:24;25.70;93.80
49218;DHT22;35045;51.194;7.268;2022-07-23T13:08:50;26.30;93.70
49218;DHT22;35045;51.194;7.268;2022-07-23T13:11:15;26.40;91.90
49218;DHT22;35045;51.194;7.268;2022-07-23T13:13:41;26.60;91.80
49218;DHT22;35045;51.194;7.268;2022-07-23T13:16:06;26.80;92.10
49218;DHT22;35045;51.194;7.268;2022-07-23T13:18:31;27.10;91.40
49218;DHT22;35045;51.194;7.268;2022-07-23T13:20:57;27.20;91.10
49218;DHT22;35045;51.194;7.268;2022-07-23T13:23:22;26.80;91.30
49218;DHT22;35045;51.194;7.268;2022-07-23T13:25:48;26.80;91.70
49218;DHT22;35045;51.194;7.268;2022-07-23T13:28:15;26.40;91.70
49218;DHT22;35045;51.194;7.268;2022-07-23T13:30:40;26.00;92.00
49218;DHT22;35045;51.194;7.268;2022-07-23T13:33:06;25.70;91.70
49218;DHT22;35045;51.194;7.268;2022-07-23T13:35:32;25.50;92.30
49218;DHT22;35045;51.194;7.268;2022-07-23T13:37:57;25.90;92.30
49218;DHT22;35045;51.194;7.268;2022-07-23T13:40:22;26.40;92.60
49218;DHT22;35045;51.194;7.268;2022-07-23T13:42:48;26.20;92.00
49218;DHT22;35045;51.194;7.268;2022-07-23T13:45:13;26.00;92.10
49218;DHT22;35045;51.194;7.268;2022-07-23T13:47:39;25.90;92.70
49218;DHT22;35045;51.194;7.268;2022-07-23T13:50:05;25.50;92.50
49218;DHT22;35045;51.194;7.268;2022-07-23T13:52:30;25.50;91.70
49218;DHT22;35045;51.194;7.268;2022-07-23T13:54:58;25.50;91.60
49218;DHT22;35045;51.194;7.268;2022-07-23T13:57:23;26.00;91.70
49218;DHT22;35045;51.194;7.268;2022-07-23T13:59:48;26.50;91.60
49218;DHT22;35045;51.194;7.268;2022-07-23T14:02:15;26.90;90.10
49218;DHT22;35045;51.194;7.268;2022-07-23T14:04:41;26.80;89.90
49218;DHT22;35045;51.194;7.268;2022-07-23T14:07:06;27.00;90.00
49218;DHT22;35045;51.194;7.268;2022-07-23T14:09:31;27.40;89.60
49218;DHT22;35045;51.194;7.268;2022-07-23T14:11:58;27.70;89.20
49218;DHT22;35045;51.194;7.268;2022-07-23T14:14:23;28.00;87.50
49218;DHT22;35045;51.194;7.268;2022-07-23T14:16:48;28.30;86.90
49218;DHT22;35045;51.194;7.268;2022-07-23T14:19:13;28.80;86.50
49218;DHT22;35045;51.194;7.268;2022-07-23T14:21:38;29.00;86.30
49218;DHT22;35045;51.194;7.268;2022-07-23T14:24:04;29.30;86.60
49218;DHT22;35045;51.194;7.268;2022-07-23T14:26:29;29.40;85.10
49218;DHT22;35045;51.194;7.268;2022-07-23T14:28:54;28.90;83.20
49218;DHT22;35045;51.194;7.268;2022-07-23T14:31:19;28.30;84.70
49218;DHT22;35045;51.194;7.268;2022-07-23T14:33:44;27.80;86.70
49218;DHT22;35045;51.194;7.268;2022-07-23T14:36:09;28.00;84.20
49218;DHT22;35045;51.194;7.268;2022-07-23T14:38:34;28.70;84.40
49218;DHT22;35045;51.194;7.268;2022-07-23T14:40:59;29.20;83.00
49218;DHT22;35045;51.194;7.268;2022-07-23T14:43:24;29.70;83.60
49218;DHT22;35045;51.194;7.268;2022-07-23T14:45:49;30.50;82.90
49218;DHT22;35045;51.194;7.268;2022-07-23T14:48:14;31.10;82.50
49218;DHT22;35045;51.194;7.268;2022-07-23T14:50:39;31.40;78.80
49218;DHT22;35045;51.194;7.268;2022-07-23T14:53:05;31.80;79.70
49218;DHT22;35045;51.194;7.268;2022-07-23T14:55:32;32.40;77.40
49218;DHT22;35045;51.194;7.268;2022-07-23T14:57:57;33.20;76.30
49218;DHT22;35045;51.194;7.268;2022-07-23T15:00:22;33.60;74.00
49218;DHT22;35045;51.194;7.268;2022-07-23T15:02:47;33.80;73.30
49218;DHT22;35045;51.194;7.268;2022-07-23T15:05:12;33.30;70.10
49218;DHT22;35045;51.194;7.268;2022-07-23T15:07:37;31.90;72.90
49218;DHT22;35045;51.194;7.268;2022-07-23T15:10:02;30.70;73.20
49218;DHT22;35045;51.194;7.268;2022-07-23T15:12:28;30.10;74.50
49218;DHT22;35045;51.194;7.268;2022-07-23T15:14:53;30.20;74.20
49218;DHT22;35045;51.194;7.268;2022-07-23T15:17:18;30.10;72.70
49218;DHT22;35045;51.194;7.268;2022-07-23T15:19:43;30.40;72.30
49218;DHT22;35045;51.194;7.268;2022-07-23T15:22:08;30.90;73.00
49218;DHT22;35045;51.194;7.268;2022-07-23T15:24:33;31.50;71.60
49218;DHT22;35045;51.194;7.268;2022-07-23T15:26:58;32.00;70.10
49218;DHT22;35045;51.194;7.268;2022-07-23T15:29:24;32.20;69.40
49218;DHT22;35045;51.194;7.268;2022-07-23T15:31:49;32.70;69.70
49218;DHT22;35045;51.194;7.268;2022-07-23T15:34:14;32.90;67.90
49218;DHT22;35045;51.194;7.268;2022-07-23T15:36:39;33.40;68.00
49218;DHT22;35045;51.194;7.268;2022-07-23T15:39:04;32.50;68.70
49218;DHT22;35045;51.194;7.268;2022-07-23T15:41:30;31.10;68.80
49218;DHT22;35045;51.194;7.268;2022-07-23T15:43:55;29.90;71.60
49218;DHT22;35045;51.194;7.268;2022-07-23T15:46:20;30.10;71.60
49218;DHT22;35045;51.194;7.268;2022-07-23T15:48:46;29.60;71.40
49218;DHT22;35045;51.194;7.268;2022-07-23T15:51:11;29.50;72.00
49218;DHT22;35045;51.194;7.268;2022-07-23T15:53:36;29.30;71.80
49218;DHT22;35045;51.194;7.268;2022-07-23T15:56:02;30.30;71.00
49218;DHT22;35045;51.194;7.268;2022-07-23T15:58:28;31.20;69.00
49218;DHT22;35045;51.194;7.268;2022-07-23T16:00:53;31.50;68.50
49218;DHT22;35045;51.194;7.268;2022-07-23T16:03:18;31.50;69.00